Time,TemperatureF,DewpointF,PressureIn,WindDirection,WindDirectionDegrees,WindSpeedMPH,WindSpeedGustMPH,Humidity,HourlyPrecipIn,Conditions,Clouds,dailyrainin,SoftwareType,DateUTC
2013-06-22 00:01:00,47.3,40.0,30.11,NW,319,0.0,0.0,77,0.00,,,0.00,weatherlink.com 1.10,2013-06-22 07:01:00,
2013-06-22 00:16:00,46.5,40.0,30.11,NW,319,0.0,0.0,79,0.00,,,0.00,weatherlink.com 1.10,2013-06-22 07:16:00,
2013-06-22 00:31:00,45.8,40.0,30.11,NW,319,0.0,1.0,81,0.00,,,0.00,weatherlink.com 1.10,2013-06-22 07:31:00,
2013-06-22 00:46:00,46.1,40.0,30.11,NW,319,0.0,2.0,80,0.00,,,0.00,weatherlink.com 1.10,2013-06-22 07:46:00,
2013-06-22 01:01:00,46.1,40.0,30.11,NW,319,0.0,2.0,79,0.00,,,0.00,weatherlink.com 1.10,2013-06-22 08:01:00,
2013-06-22 01:31:00,45.3,40.0,30.11,NW,319,1.0,2.0,80,0.00,,,0.00,weatherlink.com 1.10,2013-06-22 08:31:00,
2013-06-22 01:46:00,45.4,40.0,30.10,NW,319,0.0,1.0,80,0.00,,,0.00,weatherlink.com 1.10,2013-06-22 08:46:00,
2013-06-22 02:01:00,45.2,39.0,30.10,NW,319,0.0,2.0,80,0.00,,,0.00,weatherlink.com 1.10,2013-06-22 09:01:00,
2013-06-22 02:16:00,45.2,39.0,30.10,NW,319,1.0,3.0,80,0.00,,,0.00,weatherlink.com 1.10,2013-06-22 09:16:00,
2013-06-22 02:31:00,45.0,39.0,30.10,NW,319,0.0,1.0,80,0.00,,,0.00,weatherlink.com 1.10,2013-06-22 09:31:00,
2013-06-22 02:46:00,43.8,39.0,30.10,NW,319,0.0,0.0,82,0.00,,,0.00,weatherlink.com 1.10,2013-06-22 09:46:00,
2013-06-22 03:01:00,43.0,39.0,30.10,NW,319,0.0,3.0,84,0.00,,,0.00,weatherlink.com 1.10,2013-06-22 10:01:00,
2013-06-22 03:16:00,43.0,39.0,30.10,NW,319,0.0,3.0,84,0.00,,,0.00,weatherlink.com 1.10,2013-06-22 10:16:00,
2013-06-22 03:31:00,42.4,38.0,30.10,NW,319,0.0,0.0,84,0.00,,,0.00,weatherlink.com 1.10,2013-06-22 10:31:00,
2013-06-22 03:46:00,41.8,38.0,30.10,NW,319,1.0,4.0,85,0.00,,,0.00,weatherlink.com 1.10,2013-06-22 10:46:00,
2013-06-22 04:01:00,41.9,38.0,30.09,NW,319,1.0,2.0,85,0.00,,,0.00,weatherlink.com 1.10,2013-06-22 11:01:00,
2013-06-22 04:16:00,41.9,38.0,30.09,NW,319,0.0,0.0,85,0.00,,,0.00,weatherlink.com 1.10,2013-06-22 11:16:00,
2013-06-22 04:31:00,41.7,38.0,30.10,NW,319,0.0,4.0,85,0.00,,,0.00,weatherlink.com 1.10,2013-06-22 11:31:00,
2013-06-22 04:46:00,41.6,37.0,30.10,NW,319,1.0,3.0,85,0.00,,,0.00,weatherlink.com 1.10,2013-06-22 11:46:00,
2013-06-22 05:01:00,41.7,37.0,30.10,NW,319,5.0,5.0,84,0.00,,,0.00,weatherlink.com 1.10,2013-06-22 12:01:00,
2013-06-22 05:16:00,42.2,38.0,30.10,NW,317,0.0,5.0,84,0.00,,,0.00,weatherlink.com 1.10,2013-06-22 12:16:00,
2013-06-22 05:31:00,42.3,38.0,30.10,SSE,150,4.0,6.0,83,0.00,,,0.00,weatherlink.com 1.10,2013-06-22 12:31:00,
2013-06-22 05:46:00,41.9,37.0,30.10,SSE,153,4.0,8.0,84,0.00,,,0.00,weatherlink.com 1.10,2013-06-22 12:46:00,
2013-06-22 06:01:00,41.9,38.0,30.11,SSE,165,4.0,7.0,85,0.00,,,0.00,weatherlink.com 1.10,2013-06-22 13:01:00,
2013-06-22 06:16:00,42.5,38.0,30.11,South,170,5.0,7.0,84,0.00,,,0.00,weatherlink.com 1.10,2013-06-22 13:16:00,
2013-06-22 06:31:00,43.1,38.0,30.11,SSE,161,5.0,10.0,83,0.00,,,0.00,weatherlink.com 1.10,2013-06-22 13:31:00,
2013-06-22 06:46:00,43.6,38.0,30.11,South,178,2.0,9.0,82,0.00,,,0.00,weatherlink.com 1.10,2013-06-22 13:46:00,
2013-06-22 07:01:00,44.6,39.0,30.11,South,169,3.0,10.0,81,0.00,,,0.00,weatherlink.com 1.10,2013-06-22 14:01:00,
2013-06-22 07:16:00,45.8,40.0,30.11,SSE,160,3.0,10.0,79,0.00,,,0.00,weatherlink.com 1.10,2013-06-22 14:16:00,
2013-06-22 07:31:00,47.2,41.0,30.10,South,174,4.0,7.0,78,0.00,,,0.00,weatherlink.com 1.10,2013-06-22 14:31:00,
2013-06-22 07:46:00,49.0,42.0,30.09,SSE,167,4.0,7.0,76,0.00,,,0.00,weatherlink.com 1.10,2013-06-22 14:46:00,
2013-06-22 08:02:00,50.5,43.0,30.09,SSE,166,1.0,6.0,74,0.00,,,0.00,weatherlink.com 1.10,2013-06-22 15:02:00,
2013-06-22 08:17:00,52.1,43.0,30.09,SSE,167,2.0,7.0,70,0.00,,,0.00,weatherlink.com 1.10,2013-06-22 15:17:00,
2013-06-22 08:32:00,53.3,43.0,30.08,SE,128,5.0,8.0,68,0.00,,,0.00,weatherlink.com 1.10,2013-06-22 15:32:00,
2013-06-22 08:47:00,54.6,43.0,30.07,South,177,4.0,7.0,65,0.00,,,0.00,weatherlink.com 1.10,2013-06-22 15:47:00,
2013-06-22 09:02:00,55.8,43.0,30.06,South,184,8.0,8.0,62,0.00,,,0.00,weatherlink.com 1.10,2013-06-22 16:02:00,
2013-06-22 09:17:00,56.9,42.0,30.06,South,175,3.0,7.0,58,0.00,,,0.00,weatherlink.com 1.10,2013-06-22 16:17:00,
2013-06-22 09:32:00,58.1,43.0,30.06,South,173,2.0,6.0,57,0.00,,,0.00,weatherlink.com 1.10,2013-06-22 16:32:00,
2013-06-22 09:47:00,59.1,42.0,30.05,ESE,119,1.0,8.0,54,0.00,,,0.00,weatherlink.com 1.10,2013-06-22 16:47:00,
2013-06-22 10:02:00,60.4,42.0,30.05,SE,130,4.0,5.0,52,0.00,,,0.00,weatherlink.com 1.10,2013-06-22 17:02:00,
2013-06-22 10:17:00,60.6,42.0,30.04,North,355,2.0,7.0,51,0.00,,,0.00,weatherlink.com 1.10,2013-06-22 17:17:00,
2013-06-22 10:32:00,62.4,43.0,30.03,East,90,3.0,5.0,49,0.00,,,0.00,weatherlink.com 1.10,2013-06-22 17:32:00,
2013-06-22 10:47:00,63.7,42.0,30.03,North,11,1.0,6.0,45,0.00,,,0.00,weatherlink.com 1.10,2013-06-22 17:47:00,
2013-06-22 11:02:00,63.9,42.0,30.02,ESE,122,4.0,7.0,45,0.00,,,0.00,weatherlink.com 1.10,2013-06-22 18:02:00,
2013-06-22 11:17:00,64.7,42.0,30.02,South,180,1.0,10.0,44,0.00,,,0.00,weatherlink.com 1.10,2013-06-22 18:17:00,
2013-06-22 11:32:00,65.1,41.0,30.02,SSE,158,3.0,10.0,41,0.00,,,0.00,weatherlink.com 1.10,2013-06-22 18:32:00,
2013-06-22 11:47:00,66.0,42.0,30.01,South,174,6.0,6.0,42,0.00,,,0.00,weatherlink.com 1.10,2013-06-22 18:47:00,
2013-06-22 12:02:00,67.9,43.0,30.01,South,169,1.0,5.0,40,0.00,,,0.00,weatherlink.com 1.10,2013-06-22 19:02:00,
2013-06-22 12:17:00,67.3,41.0,30.00,SE,136,2.0,6.0,38,0.00,,,0.00,weatherlink.com 1.10,2013-06-22 19:17:00,
2013-06-22 12:32:00,68.5,43.0,29.99,North,355,1.0,5.0,40,0.00,,,0.00,weatherlink.com 1.10,2013-06-22 19:32:00,
2013-06-22 12:47:00,70.1,43.0,29.99,NNW,336,1.0,8.0,37,0.00,,,0.00,weatherlink.com 1.10,2013-06-22 19:47:00,
2013-06-22 13:03:00,69.0,42.0,29.98,East,88,2.0,7.0,37,0.00,,,0.00,weatherlink.com 1.10,2013-06-22 20:03:00,
2013-06-22 13:18:00,71.0,40.0,29.97,NNW,333,4.0,7.0,33,0.00,,,0.00,weatherlink.com 1.10,2013-06-22 20:18:00,
2013-06-22 13:33:00,70.4,41.0,29.96,NNW,333,2.0,5.0,34,0.00,,,0.00,weatherlink.com 1.10,2013-06-22 20:33:00,
2013-06-22 13:48:00,71.1,42.0,29.96,ESE,121,4.0,8.0,35,0.00,,,0.00,weatherlink.com 1.10,2013-06-22 20:48:00,
2013-06-22 14:03:00,70.8,41.0,29.95,East,95,3.0,6.0,34,0.00,,,0.00,weatherlink.com 1.10,2013-06-22 21:03:00,
2013-06-22 14:18:00,72.2,41.0,29.94,SSE,166,2.0,5.0,33,0.00,,,0.00,weatherlink.com 1.10,2013-06-22 21:18:00,
2013-06-22 14:33:00,73.6,43.0,29.93,NNW,332,1.0,6.0,34,0.00,,,0.00,weatherlink.com 1.10,2013-06-22 21:33:00,
2013-06-22 14:48:00,73.5,42.0,29.93,NNW,333,3.0,10.0,32,0.00,,,0.00,weatherlink.com 1.10,2013-06-22 21:48:00,
2013-06-22 15:03:00,73.4,42.0,29.92,North,5,2.0,5.0,32,0.00,,,0.00,weatherlink.com 1.10,2013-06-22 22:03:00,
2013-06-22 15:18:00,74.9,41.0,29.91,NNE,17,1.0,6.0,30,0.00,,,0.00,weatherlink.com 1.10,2013-06-22 22:18:00,
2013-06-22 15:33:00,76.0,45.0,29.91,East,81,5.0,7.0,33,0.00,,,0.00,weatherlink.com 1.10,2013-06-22 22:33:00,
2013-06-22 15:48:00,76.1,42.0,29.90,North,5,1.0,8.0,30,0.00,,,0.00,weatherlink.com 1.10,2013-06-22 22:48:00,
2013-06-22 16:03:00,74.9,41.0,29.90,NNW,334,2.0,9.0,30,0.00,,,0.00,weatherlink.com 1.10,2013-06-22 23:03:00,
2013-06-22 16:18:00,74.9,41.0,29.89,NNW,343,6.0,10.0,29,0.00,,,0.00,weatherlink.com 1.10,2013-06-22 23:18:00,
2013-06-22 16:33:00,75.3,40.0,29.88,North,360,7.0,8.0,28,0.00,,,0.00,weatherlink.com 1.10,2013-06-22 23:33:00,
2013-06-22 16:48:00,74.5,40.0,29.88,North,5,3.0,11.0,29,0.00,,,0.00,weatherlink.com 1.10,2013-06-22 23:48:00,
2013-06-22 17:03:00,75.4,41.0,29.87,North,10,6.0,9.0,29,0.00,,,0.00,weatherlink.com 1.10,2013-06-23 00:03:00,
2013-06-22 17:18:00,74.1,42.0,29.86,NNW,328,2.0,11.0,31,0.00,,,0.00,weatherlink.com 1.10,2013-06-23 00:18:00,
2013-06-22 17:33:00,75.1,41.0,29.85,NW,315,2.0,8.0,29,0.00,,,0.00,weatherlink.com 1.10,2013-06-23 00:33:00,
2013-06-22 17:48:00,74.6,40.0,29.86,NW,305,5.0,9.0,29,0.00,,,0.00,weatherlink.com 1.10,2013-06-23 00:48:00,
2013-06-22 18:03:00,73.8,40.0,29.85,NW,310,3.0,8.0,30,0.00,,,0.00,weatherlink.com 1.10,2013-06-23 01:03:00,
2013-06-22 18:18:00,73.0,41.0,29.85,NW,304,2.0,8.0,31,0.00,,,0.00,weatherlink.com 1.10,2013-06-23 01:18:00,
2013-06-22 18:33:00,72.6,40.0,29.85,North,355,5.0,8.0,31,0.00,,,0.00,weatherlink.com 1.10,2013-06-23 01:33:00,
2013-06-22 18:48:00,72.0,40.0,29.85,North,11,4.0,9.0,32,0.00,,,0.00,weatherlink.com 1.10,2013-06-23 01:48:00,
2013-06-22 19:03:00,71.8,41.0,29.84,NNW,340,7.0,8.0,33,0.00,,,0.00,weatherlink.com 1.10,2013-06-23 02:03:00,
2013-06-22 19:18:00,71.5,42.0,29.84,NW,322,3.0,6.0,34,0.00,,,0.00,weatherlink.com 1.10,2013-06-23 02:18:00,
2013-06-22 19:33:00,71.2,42.0,29.84,NW,309,6.0,9.0,35,0.00,,,0.00,weatherlink.com 1.10,2013-06-23 02:33:00,
2013-06-22 19:48:00,70.5,45.0,29.84,NNW,344,5.0,10.0,40,0.00,,,0.00,weatherlink.com 1.10,2013-06-23 02:48:00,
2013-06-22 20:03:00,70.5,45.0,29.84,NNW,339,2.0,10.0,40,0.00,,,0.00,weatherlink.com 1.10,2013-06-23 03:03:00,
2013-06-22 20:18:00,70.0,44.0,29.85,NW,319,3.0,8.0,40,0.00,,,0.00,weatherlink.com 1.10,2013-06-23 03:18:00,
2013-06-22 20:33:00,69.2,45.0,29.84,WNW,294,4.0,8.0,42,0.00,,,0.00,weatherlink.com 1.10,2013-06-23 03:33:00,
2013-06-22 20:48:00,68.5,44.0,29.84,WNW,287,4.0,10.0,42,0.00,,,0.00,weatherlink.com 1.10,2013-06-23 03:48:00,
2013-06-22 21:03:00,67.7,44.0,29.84,NW,309,6.0,10.0,43,0.00,,,0.00,weatherlink.com 1.10,2013-06-23 04:03:00,
2013-06-22 21:18:00,67.0,44.0,29.84,NW,313,3.0,8.0,43,0.00,,,0.00,weatherlink.com 1.10,2013-06-23 04:18:00,
2013-06-22 21:33:00,66.5,44.0,29.85,NW,321,3.0,7.0,45,0.00,,,0.00,weatherlink.com 1.10,2013-06-23 04:33:00,
2013-06-22 21:48:00,66.2,44.0,29.85,WNW,294,9.0,10.0,45,0.00,,,0.00,weatherlink.com 1.10,2013-06-23 04:48:00,
2013-06-22 22:03:00,65.6,44.0,29.85,WNW,292,2.0,12.0,46,0.00,,,0.00,weatherlink.com 1.10,2013-06-23 05:03:00,
2013-06-22 22:18:00,64.9,44.0,29.85,WNW,292,5.0,10.0,47,0.00,,,0.00,weatherlink.com 1.10,2013-06-23 05:18:00,
2013-06-22 22:33:00,64.4,44.0,29.85,West,265,8.0,9.0,48,0.00,,,0.00,weatherlink.com 1.10,2013-06-23 05:33:00,
2013-06-22 22:48:00,63.9,45.0,29.85,NW,306,3.0,8.0,50,0.00,,,0.00,weatherlink.com 1.10,2013-06-23 05:48:00,
2013-06-22 23:03:00,63.3,45.0,29.85,WNW,295,3.0,7.0,52,0.00,,,0.00,weatherlink.com 1.10,2013-06-23 06:03:00,
2013-06-22 23:18:00,62.8,46.0,29.84,WNW,296,7.0,8.0,55,0.00,,,0.00,weatherlink.com 1.10,2013-06-23 06:18:00,
2013-06-22 23:33:00,62.5,47.0,29.84,WNW,293,3.0,8.0,57,0.00,,,0.00,weatherlink.com 1.10,2013-06-23 06:33:00,
2013-06-22 23:48:00,62.0,47.0,29.83,WNW,290,2.0,7.0,58,0.00,,,0.00,weatherlink.com 1.10,2013-06-23 06:48:00,